createdAt,value
2019-05-13T00:02:01.069Z,37.83
2019-05-13T00:04:33.746Z,39.15
2019-05-13T00:07:04.852Z,38.17
2019-05-13T00:09:35.793Z,37.48
2019-05-13T00:12:06.970Z,35.92
2019-05-13T00:14:37.911Z,33.10
2019-05-13T00:17:08.744Z,34.90
2019-05-13T00:19:39.603Z,34.15
2019-05-13T00:22:11.425Z,33.28
2019-05-13T00:24:43.810Z,34.75
2019-05-13T00:27:14.438Z,33.45
2019-05-13T00:29:46.817Z,35.13
2019-05-13T00:32:17.762Z,35.50
2019-05-13T00:34:48.678Z,35.40
2019-05-13T00:37:20.948Z,37.33
2019-05-13T00:39:54.190Z,36.17
2019-05-13T00:42:24.708Z,38.05
2019-05-13T00:44:55.608Z,37.75
2019-05-13T00:47:27.306Z,39.42
2019-05-13T00:49:58.404Z,37.70
2019-05-13T00:52:30.261Z,38.38
2019-05-13T00:55:04.084Z,36.90
2019-05-13T00:57:34.142Z,36.10
2019-05-13T01:00:09.015Z,36.25
2019-05-13T01:02:41.159Z,36.17
2019-05-13T01:05:14.368Z,36.90
2019-05-13T01:07:44.763Z,36.38
2019-05-13T01:10:15.838Z,36.00
2019-05-13T01:12:46.974Z,36.95
2019-05-13T01:15:19.590Z,36.77
2019-05-13T01:17:50.394Z,37.55
2019-05-13T01:20:23.423Z,36.05
2019-05-13T01:22:54.228Z,36.17
2019-05-13T01:25:24.998Z,36.03
2019-05-13T01:27:55.992Z,37.70
2019-05-13T01:30:27.018Z,36.48
2019-05-13T01:32:57.856Z,35.95
2019-05-13T01:35:29.813Z,37.05
2019-05-13T01:38:00.751Z,35.43
2019-05-13T01:40:35.040Z,35.10
2019-05-13T01:43:07.849Z,39.15
2019-05-13T01:45:38.924Z,37.53
2019-05-13T01:48:09.825Z,37.58
2019-05-13T01:50:40.757Z,38.02
2019-05-13T01:53:14.269Z,38.28
2019-05-13T01:55:44.535Z,37.38
2019-05-13T01:58:15.185Z,37.00
2019-05-13T02:00:46.048Z,37.70
2019-05-13T02:03:16.985Z,35.58
2019-05-13T02:05:47.816Z,36.15
2019-05-13T02:08:18.755Z,37.55
2019-05-13T02:10:56.589Z,36.88
2019-05-13T02:13:27.431Z,37.00
2019-05-13T02:15:58.206Z,37.15
2019-05-13T02:18:29.078Z,38.30
2019-05-13T02:20:59.893Z,37.20
2019-05-13T02:23:30.934Z,37.25
2019-05-13T02:26:04.227Z,39.67
2019-05-13T02:28:36.685Z,37.42
2019-05-13T02:31:07.853Z,37.50
2019-05-13T02:33:42.373Z,37.08
2019-05-13T02:36:13.495Z,36.50
2019-05-13T02:38:45.877Z,37.28
2019-05-13T02:41:16.912Z,37.53
2019-05-13T02:43:48.665Z,38.02
2019-05-13T02:46:22.422Z,36.40
2019-05-13T02:48:52.748Z,35.25
2019-05-13T02:51:24.589Z,41.18
2019-05-13T02:53:55.185Z,34.13
2019-05-13T02:56:26.118Z,36.48
2019-05-13T02:58:57.168Z,32.73
2019-05-13T03:01:28.101Z,30.77
2019-05-13T03:03:58.897Z,29.72
2019-05-13T03:06:33.181Z,28.02
2019-05-13T03:09:03.304Z,28.38
2019-05-13T03:11:34.416Z,27.98
2019-05-13T03:14:05.510Z,29.63
2019-05-13T03:16:52.976Z,28.52
2019-05-13T03:19:24.516Z,27.95
2019-05-13T03:21:55.469Z,29.00
2019-05-13T03:24:26.093Z,29.32
2019-05-13T03:26:57.019Z,29.52
2019-05-13T03:29:27.896Z,25.50
2019-05-13T03:31:59.585Z,24.50
2019-05-13T03:34:36.203Z,25.80
2019-05-13T03:37:06.830Z,20.72
2019-05-13T03:39:37.739Z,20.70
2019-05-13T03:42:12.294Z,19.85
2019-05-13T03:44:45.053Z,20.43
2019-05-13T03:47:17.423Z,20.43
2019-05-13T03:49:49.589Z,19.70
2019-05-13T03:52:22.517Z,20.00
2019-05-13T03:54:55.971Z,18.98
2019-05-13T03:57:27.138Z,19.85
2019-05-13T03:59:57.850Z,24.77
2019-05-13T04:02:32.543Z,24.63
2019-05-13T04:05:04.151Z,25.23
2019-05-13T04:07:35.384Z,23.73
2019-05-13T04:10:08.161Z,24.55
2019-05-13T04:12:38.725Z,21.00
2019-05-13T04:15:12.855Z,19.32
2019-05-13T04:17:43.517Z,21.37
2019-05-13T04:20:16.301Z,23.12
2019-05-13T04:22:47.186Z,17.65
2019-05-13T04:25:18.077Z,16.73
2019-05-13T04:27:52.413Z,17.62
2019-05-13T04:30:23.010Z,24.70
2019-05-13T04:32:53.798Z,17.75
2019-05-13T04:35:24.723Z,18.50
2019-05-13T04:37:55.466Z,19.62
2019-05-13T04:40:26.662Z,16.17
2019-05-13T04:42:57.624Z,18.40
2019-05-13T04:45:32.664Z,19.27
2019-05-13T04:48:03.196Z,24.27
2019-05-13T04:50:34.319Z,22.17
2019-05-13T04:53:05.343Z,18.90
2019-05-13T04:55:38.229Z,18.87
2019-05-13T04:58:12.686Z,22.37
2019-05-13T05:00:50.021Z,19.65
2019-05-13T05:03:45.702Z,18.30
2019-05-13T05:06:42.386Z,18.32
2019-05-13T05:09:43.199Z,15.98
2019-05-13T05:12:16.929Z,19.23
2019-05-13T05:15:05.934Z,19.95
2019-05-13T05:17:48.551Z,19.73
2019-05-13T05:20:42.997Z,19.25
2019-05-13T05:23:32.970Z,18.65
2019-05-13T05:26:16.305Z,19.10
2019-05-13T05:29:03.418Z,22.02
2019-05-13T05:31:52.093Z,20.70
2019-05-13T05:34:51.957Z,20.92
2019-05-13T05:37:43.811Z,22.90
2019-05-13T05:40:28.194Z,17.48
2019-05-13T05:42:51.803Z,17.45
2019-05-13T05:45:23.260Z,17.90
2019-05-13T05:47:55.866Z,15.83
2019-05-13T05:50:28.235Z,15.38
2019-05-13T05:53:01.848Z,16.75
2019-05-13T05:55:35.342Z,13.93
2019-05-13T07:43:51.765Z,16.67
2019-05-13T07:46:22.877Z,13.58
2019-05-13T07:48:54.945Z,13.13
2019-05-13T07:51:25.766Z,12.40
2019-05-13T07:53:56.807Z,14.70
2019-05-13T07:56:27.637Z,11.85
2019-05-13T07:59:01.485Z,12.45
2019-05-13T08:01:32.779Z,11.57
2019-05-13T08:04:03.466Z,11.80
2019-05-13T08:06:34.564Z,11.30
2019-05-13T08:09:08.201Z,15.70
2019-05-13T08:11:55.588Z,10.93
2019-05-13T08:14:12.376Z,11.35
2019-05-13T08:16:43.394Z,12.40
2019-05-13T08:19:14.376Z,12.03
2019-05-13T08:21:45.233Z,12.78
2019-05-13T08:24:17.173Z,12.60
2019-05-13T08:26:50.057Z,12.73
2019-05-13T08:29:21.635Z,11.40
2019-05-13T08:31:52.331Z,13.38
2019-05-13T08:34:22.940Z,9.63
2019-05-13T08:36:53.902Z,9.05
2019-05-13T08:39:26.792Z,10.13
2019-05-13T08:42:11.712Z,10.13
2019-05-13T08:44:32.236Z,9.58
2019-05-13T08:47:03.627Z,10.50
2019-05-13T08:49:35.445Z,7.37
2019-05-13T08:52:06.186Z,7.45
2019-05-13T08:54:37.161Z,8.68
2019-05-13T08:57:08.159Z,8.58
2019-05-13T08:59:39.115Z,10.00
2019-05-13T09:02:12.922Z,9.70
2019-05-13T09:04:43.532Z,10.13
2019-05-13T09:07:16.316Z,9.93
2019-05-13T09:09:47.371Z,7.53
2019-05-13T09:12:29.567Z,9.68
2019-05-13T09:14:52.404Z,11.17
2019-05-13T09:17:23.131Z,10.20
2019-05-13T09:19:54.066Z,9.48
2019-05-13T09:22:24.940Z,9.75
2019-05-13T09:24:55.948Z,8.90
2019-05-13T09:27:27.393Z,12.50
2019-05-13T09:29:58.134Z,8.25
2019-05-13T09:32:31.821Z,7.50
2019-05-13T09:35:03.175Z,13.62
2019-05-13T09:37:34.157Z,8.98
2019-05-13T09:40:06.120Z,8.83
2019-05-13T09:42:48.155Z,8.73
2019-05-13T09:45:12.277Z,10.60
2019-05-13T09:47:42.379Z,8.63
2019-05-13T09:50:27.996Z,8.60
2019-05-13T09:52:45.978Z,8.48
2019-05-13T09:55:28.290Z,9.75
2019-05-13T09:57:52.610Z,8.90
2019-05-13T10:00:23.952Z,8.78
2019-05-13T10:02:54.833Z,8.38
2019-05-13T10:05:25.483Z,8.60
2019-05-13T10:07:56.322Z,9.38
2019-05-13T10:10:27.165Z,8.45
2019-05-13T10:13:09.298Z,8.35
2019-05-13T10:15:32.758Z,8.55
2019-05-13T10:18:03.577Z,8.68
2019-05-13T10:20:43.753Z,11.33
2019-05-13T10:23:15.257Z,11.25
2019-05-13T10:25:52.191Z,11.05
2019-05-13T10:28:23.748Z,16.30
2019-05-13T10:30:54.504Z,14.40
2019-05-13T10:33:25.558Z,15.90
2019-05-13T10:35:56.868Z,17.17
2019-05-13T10:38:28.147Z,18.48
2019-05-13T10:40:59.426Z,19.62
2019-05-13T10:43:32.179Z,17.20
2019-05-13T10:46:03.176Z,17.10
2019-05-13T10:48:34.465Z,18.52
2019-05-13T10:51:06.229Z,18.87
2019-05-13T10:53:36.948Z,17.52
2019-05-13T10:56:12.830Z,17.25
2019-05-13T10:58:44.936Z,15.98
2019-05-13T11:01:15.714Z,16.60
2019-05-13T11:03:46.342Z,16.87
2019-05-13T11:06:22.001Z,16.17
2019-05-13T11:08:53.124Z,14.33
2019-05-13T11:11:25.553Z,16.15
2019-05-13T11:14:11.010Z,17.77
2019-05-13T11:16:37.671Z,15.95
2019-05-13T11:19:11.427Z,17.00
2019-05-13T11:21:44.303Z,19.00
2019-05-13T11:26:45.143Z,17.85
2019-05-13T11:29:15.979Z,17.05
2019-05-13T11:31:52.265Z,18.03
2019-05-13T11:34:23.588Z,17.02
2019-05-13T11:36:54.398Z,16.07
2019-05-13T11:39:25.459Z,15.88
2019-05-13T11:41:56.398Z,13.72
2019-05-13T11:44:27.440Z,16.20
2019-05-13T11:46:58.684Z,13.83
2019-05-13T11:49:31.656Z,16.00
2019-05-13T11:52:03.263Z,17.15
2019-05-13T11:54:34.292Z,16.93
2019-05-13T11:57:06.757Z,15.25
2019-05-13T11:59:37.827Z,14.68
2019-05-13T12:02:09.023Z,14.98
2019-05-13T12:04:43.119Z,13.13
2019-05-13T12:07:13.811Z,13.53
2019-05-13T12:09:44.595Z,12.47
2019-05-13T12:12:16.451Z,15.45
2019-05-13T12:15:16.161Z,15.20
2019-05-13T12:17:22.458Z,16.52
2019-05-13T12:19:54.218Z,16.02
2019-05-13T12:22:25.119Z,8.85
2019-05-13T12:24:56.059Z,8.93
2019-05-13T12:27:27.217Z,9.28
2019-05-13T12:29:58.177Z,7.67
2019-05-13T12:32:32.093Z,9.03
2019-05-13T12:35:03.483Z,10.08
2019-05-13T12:37:34.069Z,10.82
2019-05-13T12:40:05.573Z,13.48
2019-05-13T12:42:43.123Z,13.53
2019-05-13T12:45:13.925Z,11.57
2019-05-13T12:50:15.479Z,10.45
2019-05-13T12:52:47.769Z,10.30
2019-05-13T12:55:18.672Z,10.72
2019-05-13T12:57:52.077Z,9.93
2019-05-13T13:00:23.704Z,11.73
2019-05-13T13:02:55.764Z,14.85
2019-05-13T13:05:33.163Z,15.80
2019-05-13T13:08:17.097Z,14.90
2019-05-13T13:10:34.490Z,14.15
2019-05-13T13:13:05.174Z,15.70
2019-05-13T13:15:41.902Z,15.50
2019-05-13T13:18:13.979Z,20.48
2019-05-13T13:20:42.308Z,27.35
2019-05-13T13:23:15.068Z,29.55
2019-05-13T13:25:52.695Z,32.50
2019-05-13T13:28:18.163Z,31.55
2019-05-13T13:30:52.534Z,32.93
2019-05-13T13:33:23.539Z,24.90
2019-05-13T13:38:26.719Z,17.57
2019-05-13T13:40:57.971Z,16.57
2019-05-13T13:43:28.905Z,14.18
2019-05-13T13:46:23.185Z,14.25
2019-05-13T13:48:33.749Z,13.22
2019-05-13T13:51:05.340Z,11.68
2019-05-13T13:53:36.545Z,11.20
2019-05-13T13:56:07.999Z,11.22
2019-05-13T13:58:43.819Z,11.03
2019-05-13T14:01:19.771Z,10.50
2019-05-13T14:03:47.369Z,11.75
2019-05-13T14:07:11.709Z,20.43
2019-05-13T14:07:22.012Z,10.50
2019-05-13T14:08:53.274Z,10.60
2019-05-13T14:11:25.230Z,11.10
2019-05-13T14:13:56.436Z,11.03
2019-05-13T14:16:32.517Z,10.23
2019-05-13T14:19:03.124Z,10.88
2019-05-13T14:21:33.647Z,10.20
2019-05-13T14:24:05.549Z,9.83
2019-05-13T14:26:36.444Z,10.03
2019-05-13T14:29:07.421Z,10.18
2019-05-13T14:31:38.414Z,9.30
2019-05-13T14:34:11.462Z,10.78
2019-05-13T14:36:41.838Z,14.00
2019-05-13T14:39:12.674Z,17.32
2019-05-13T14:41:44.009Z,17.62
2019-05-13T14:44:16.856Z,20.95
2019-05-13T14:46:48.195Z,20.32
2019-05-13T14:49:22.492Z,20.15
2019-05-13T14:51:56.294Z,18.00
2019-05-13T14:54:27.425Z,16.87
2019-05-13T14:56:58.546Z,17.70
2019-05-13T14:59:31.465Z,19.35
2019-05-13T15:02:02.566Z,20.43
2019-05-13T15:04:33.809Z,13.90
2019-05-13T15:07:04.685Z,11.08
2019-05-13T15:09:35.891Z,11.75
2019-05-13T15:12:06.834Z,14.00
2019-05-13T15:14:40.083Z,13.58
2019-05-13T15:17:12.852Z,13.27
2019-05-13T15:19:43.607Z,13.10
2019-05-13T15:22:17.028Z,14.75
2019-05-13T15:24:48.206Z,17.62
2019-05-13T15:27:22.071Z,15.50
2019-05-13T15:29:52.606Z,14.98
2019-05-13T15:32:23.546Z,15.00
2019-05-13T15:34:54.692Z,15.32
2019-05-13T15:37:26.081Z,17.12
2019-05-13T15:39:57.174Z,15.58
2019-05-13T15:42:28.055Z,13.00
2019-05-13T15:45:01.610Z,16.02
2019-05-13T15:47:31.527Z,13.28
2019-05-13T15:50:03.273Z,20.10
2019-05-13T15:52:33.916Z,23.50
2019-05-13T15:55:06.389Z,15.48
2019-05-13T15:57:37.115Z,13.70
2019-05-13T16:00:08.770Z,20.85
2019-05-13T16:02:41.978Z,21.68
2019-05-13T16:05:13.106Z,21.55
2019-05-13T16:07:43.768Z,19.30
2019-05-13T16:10:14.825Z,18.40
2019-05-13T16:12:45.952Z,18.20
2019-05-13T16:15:18.882Z,17.05
2019-05-13T16:17:52.172Z,20.17
2019-05-13T16:20:22.926Z,20.27
2019-05-13T16:22:53.933Z,22.45
2019-05-13T16:25:27.108Z,22.32
2019-05-13T16:28:01.344Z,22.75
2019-05-13T16:30:32.474Z,22.02
2019-05-13T16:33:03.720Z,16.52
2019-05-13T16:35:34.803Z,14.78
2019-05-13T16:38:05.631Z,14.60
2019-05-13T16:40:36.969Z,13.03
2019-05-13T16:43:07.950Z,12.53
2019-05-13T16:45:41.610Z,13.30
2019-05-13T16:48:12.300Z,13.20
2019-05-13T16:50:43.388Z,13.18
2019-05-13T16:53:14.321Z,12.63
2019-05-13T16:55:46.087Z,13.08
2019-05-13T16:58:18.499Z,12.95
2019-05-13T17:00:51.606Z,13.90
2019-05-13T17:03:21.859Z,13.50
2019-05-13T17:05:53.000Z,11.88
2019-05-13T17:08:24.038Z,10.65
2019-05-13T17:10:56.520Z,12.10
2019-05-13T17:13:27.582Z,12.30
2019-05-13T17:16:01.391Z,11.38
2019-05-13T17:18:32.347Z,14.40
2019-05-13T17:21:04.360Z,12.95
2019-05-13T17:23:35.409Z,11.03
2019-05-13T17:26:07.468Z,17.87
2019-05-13T17:28:41.474Z,26.37
2019-05-13T17:31:11.688Z,26.70
2019-05-13T17:33:42.742Z,35.88
2019-05-13T17:36:13.776Z,28.55
2019-05-13T17:38:44.636Z,30.82
2019-05-13T17:41:15.646Z,28.50
2019-05-13T17:43:46.684Z,23.87
2019-05-13T17:46:17.624Z,24.98
2019-05-13T17:48:51.888Z,21.87
2019-05-13T17:51:22.657Z,18.00
2019-05-13T17:53:53.722Z,12.53
2019-05-13T17:56:24.754Z,9.58
2019-05-13T17:58:55.929Z,8.68
2019-05-13T18:01:27.443Z,9.83
2019-05-13T18:03:57.880Z,9.30
2019-05-13T18:06:28.934Z,10.88
2019-05-13T18:09:01.218Z,10.98
2019-05-13T18:11:32.359Z,10.23
2019-05-13T18:14:03.464Z,10.45
2019-05-13T18:16:34.400Z,11.25
2019-05-13T18:19:06.153Z,11.65
2019-05-13T18:21:36.893Z,12.43
2019-05-13T18:24:08.038Z,12.88
2019-05-13T18:26:41.566Z,14.00
2019-05-13T18:29:12.262Z,14.23
2019-05-13T18:31:43.536Z,15.05
2019-05-13T18:34:14.439Z,16.17
2019-05-13T18:36:45.286Z,15.60
2019-05-13T18:39:17.950Z,16.32
2019-05-13T18:41:48.916Z,16.48
2019-05-13T18:44:19.930Z,16.75
2019-05-13T18:46:52.354Z,14.40
2019-05-13T18:49:24.059Z,14.30
2019-05-13T18:51:54.998Z,15.35
2019-05-13T18:54:25.833Z,17.50
2019-05-13T18:56:56.553Z,16.93
2019-05-13T18:59:27.608Z,18.60
2019-05-13T19:02:01.461Z,19.17
2019-05-13T19:04:31.900Z,20.57
2019-05-13T19:07:03.632Z,20.50
2019-05-13T19:09:34.937Z,18.32
2019-05-13T19:12:06.779Z,17.07
2019-05-13T19:14:41.169Z,18.65
2019-05-13T19:17:12.327Z,16.75
2019-05-13T19:19:43.083Z,15.80
2019-05-13T19:22:14.140Z,15.28
2019-05-13T19:24:45.064Z,16.62
2019-05-13T19:27:16.103Z,14.95
2019-05-13T19:29:47.024Z,14.98
2019-05-13T19:32:17.896Z,13.58
2019-05-13T19:34:51.621Z,13.03
2019-05-13T19:37:22.541Z,13.90
2019-05-13T19:39:53.659Z,13.15
2019-05-13T19:42:24.182Z,13.30
2019-05-13T19:44:55.538Z,13.65
2019-05-13T19:47:26.570Z,13.00
2019-05-13T19:49:58.636Z,14.95
2019-05-13T19:52:32.065Z,13.50
2019-05-13T19:55:02.251Z,14.18
2019-05-13T19:57:32.939Z,14.25
2019-05-13T20:00:13.396Z,14.23
2019-05-13T20:02:42.372Z,14.07
2019-05-13T20:05:13.267Z,14.63
2019-05-13T20:07:44.206Z,14.55
2019-05-13T20:10:15.576Z,15.15
2019-05-13T20:12:45.980Z,15.88
2019-05-13T20:15:17.224Z,14.73
2019-05-13T20:17:48.673Z,16.37
2019-05-13T20:20:21.191Z,14.85
2019-05-13T20:22:52.865Z,15.55
2019-05-13T20:25:23.945Z,18.02
2019-05-13T20:27:54.882Z,22.90
2019-05-13T20:30:25.813Z,25.25
2019-05-13T20:32:56.855Z,25.70
2019-05-13T20:35:28.202Z,23.67
2019-05-13T20:37:59.136Z,21.45
2019-05-13T20:40:32.268Z,20.48
2019-05-13T20:43:02.963Z,20.43
2019-05-13T20:45:33.868Z,20.75
2019-05-13T20:48:05.446Z,21.10
2019-05-13T20:50:36.301Z,22.62
2019-05-13T20:53:07.246Z,24.27
2019-05-13T20:55:38.268Z,23.05
2019-05-13T20:58:09.296Z,25.77
2019-05-13T21:00:42.230Z,24.47
2019-05-13T21:03:12.455Z,21.77
2019-05-13T21:05:43.470Z,20.08
2019-05-13T21:08:14.277Z,20.97
2019-05-13T21:10:46.957Z,23.87
2019-05-13T21:13:17.785Z,27.17
2019-05-13T21:15:48.729Z,25.88
2019-05-13T21:18:22.000Z,23.75
2019-05-13T21:20:51.934Z,23.20
2019-05-13T21:23:23.075Z,23.47
2019-05-13T21:25:53.926Z,22.30
2019-05-13T21:28:26.383Z,21.48
2019-05-13T21:30:56.899Z,21.30
2019-05-13T21:33:27.866Z,22.35
2019-05-13T21:35:58.817Z,21.00
2019-05-13T21:38:32.225Z,22.93
2019-05-13T21:41:02.400Z,22.55
2019-05-13T21:43:33.336Z,24.07
2019-05-13T21:46:05.296Z,22.65
2019-05-13T21:48:36.031Z,22.52
2019-05-13T21:51:06.964Z,23.65
2019-05-13T21:53:37.908Z,24.82
2019-05-13T21:56:08.845Z,25.52
2019-05-13T21:58:41.623Z,24.63
2019-05-13T22:01:11.905Z,23.87
2019-05-13T22:03:42.900Z,22.40
2019-05-13T22:06:13.782Z,22.25
2019-05-13T22:08:44.756Z,21.33
2019-05-13T22:11:18.352Z,22.40
2019-05-13T22:13:51.261Z,22.70
2019-05-13T22:16:21.558Z,23.15
2019-05-13T22:18:52.606Z,25.45
2019-05-13T22:21:23.430Z,25.75
2019-05-13T22:23:54.296Z,26.57
2019-05-13T22:26:25.727Z,28.50
2019-05-13T22:28:57.475Z,29.20
2019-05-13T22:31:31.139Z,28.77
2019-05-13T22:34:01.813Z,27.30
2019-05-13T22:36:32.757Z,24.50
2019-05-13T22:39:04.360Z,24.40
2019-05-13T22:41:34.927Z,25.35
2019-05-13T22:44:05.824Z,27.05
2019-05-13T22:46:37.729Z,30.27
2019-05-13T22:49:08.559Z,27.75
2019-05-13T22:51:41.248Z,31.20
2019-05-13T22:54:12.128Z,35.65
2019-05-13T22:56:43.034Z,37.13
2019-05-13T22:59:13.805Z,35.98
2019-05-13T23:01:44.696Z,32.93
2019-05-13T23:04:15.611Z,33.25
2019-05-13T23:06:46.445Z,31.87
2019-05-13T23:09:17.179Z,31.93
2019-05-13T23:11:48.017Z,32.88
2019-05-13T23:14:18.950Z,31.75
2019-05-13T23:16:49.681Z,31.95
2019-05-13T23:19:21.716Z,34.58
2019-05-13T23:21:52.690Z,33.65
2019-05-13T23:24:23.212Z,31.30
2019-05-13T23:26:54.369Z,27.90
2019-05-13T23:29:25.392Z,27.45
2019-05-13T23:31:56.330Z,25.97
2019-05-13T23:34:27.191Z,26.30
2019-05-13T23:36:58.104Z,27.85
2019-05-13T23:39:29.072Z,30.60
2019-05-13T23:42:01.427Z,29.55
2019-05-13T23:44:32.557Z,31.85
2019-05-13T23:47:03.648Z,33.78
2019-05-13T23:49:34.434Z,32.40
2019-05-13T23:52:05.331Z,31.33
2019-05-13T23:54:36.507Z,32.40
2019-05-13T23:57:08.157Z,30.40
2019-05-13T23:59:41.674Z,30.77
